createdAt,value
2019-03-18T00:00:33.146Z,11.60
2019-03-18T00:03:02.073Z,12.63
2019-03-18T00:05:30.762Z,13.08
2019-03-18T00:07:59.306Z,12.23
2019-03-18T00:10:27.911Z,12.28
2019-03-18T00:12:56.521Z,12.07
2019-03-18T00:15:25.136Z,10.95
2019-03-18T00:17:53.679Z,12.00
2019-03-18T00:20:22.209Z,12.45
2019-03-18T00:22:50.846Z,11.88
2019-03-18T00:25:19.450Z,11.90
2019-03-18T00:27:47.991Z,11.28
2019-03-18T00:30:18.745Z,12.47
2019-03-18T00:32:47.347Z,11.88
2019-03-18T00:35:15.988Z,12.18
2019-03-18T00:37:44.593Z,12.95
2019-03-18T00:40:14.903Z,11.53
2019-03-18T00:42:43.515Z,12.35
2019-03-18T00:45:15.150Z,10.72
2019-03-18T00:47:43.483Z,12.60
2019-03-18T00:50:16.799Z,12.85
2019-03-18T00:52:45.515Z,11.75
2019-03-18T00:55:14.116Z,11.93
2019-03-18T00:57:43.909Z,12.13
2019-03-18T01:00:16.423Z,12.28
2019-03-18T01:02:45.059Z,12.20
2019-03-18T01:05:14.290Z,11.40
2019-03-18T01:07:42.930Z,12.68
2019-03-18T01:10:13.712Z,12.15
2019-03-18T01:12:42.284Z,11.60
2019-03-18T01:15:11.801Z,10.65
2019-03-18T01:17:40.412Z,10.45
2019-03-18T01:20:10.815Z,10.85
2019-03-18T01:22:39.360Z,11.10
2019-03-18T01:25:09.712Z,11.35
2019-03-18T01:27:38.357Z,10.28
2019-03-18T01:30:12.213Z,10.53
2019-03-18T01:32:40.813Z,10.30
2019-03-18T01:35:10.527Z,10.85
2019-03-18T01:37:39.159Z,10.13
2019-03-18T01:40:12.186Z,9.65
2019-03-18T01:42:40.812Z,11.05
2019-03-18T01:45:11.465Z,10.65
2019-03-18T01:47:40.195Z,9.83
2019-03-18T01:50:13.590Z,13.03
2019-03-18T01:52:41.880Z,11.00
2019-03-18T01:55:10.480Z,10.15
2019-03-18T01:57:39.079Z,9.85
2019-03-18T02:00:13.023Z,9.38
2019-03-18T02:02:41.573Z,7.50
2019-03-18T02:05:10.979Z,7.92
2019-03-18T02:07:39.616Z,7.17
2019-03-18T02:10:13.325Z,8.58
2019-03-18T02:12:41.959Z,5.08
2019-03-18T02:15:12.904Z,5.33
2019-03-18T02:17:41.488Z,3.75
2019-03-18T02:20:14.204Z,4.72
2019-03-18T02:22:42.810Z,4.03
2019-03-18T02:25:11.579Z,3.50
2019-03-18T02:27:40.262Z,2.80
2019-03-18T02:30:13.791Z,2.87
2019-03-18T02:32:42.469Z,3.02
2019-03-18T02:35:11.069Z,2.55
2019-03-18T02:37:39.617Z,2.98
2019-03-18T02:40:09.821Z,2.60
2019-03-18T02:42:38.434Z,2.15
2019-03-18T02:45:09.640Z,2.30
2019-03-18T02:47:38.218Z,2.52
2019-03-18T02:50:08.231Z,2.40
2019-03-18T02:52:36.878Z,2.22
2019-03-18T02:55:08.521Z,2.40
2019-03-18T02:57:37.116Z,2.20
2019-03-18T03:00:11.315Z,2.83
2019-03-18T03:02:39.885Z,2.75
2019-03-18T03:05:10.896Z,2.60
2019-03-18T03:07:39.423Z,2.80
2019-03-18T03:10:11.451Z,3.10
2019-03-18T03:12:40.000Z,2.95
2019-03-18T03:15:13.554Z,3.22
2019-03-18T03:17:42.203Z,3.60
2019-03-18T03:20:12.673Z,2.80
2019-03-18T03:22:41.277Z,3.67
2019-03-18T03:25:11.004Z,3.35
2019-03-18T03:27:39.620Z,3.90
2019-03-18T03:30:17.539Z,3.60
2019-03-18T03:32:46.060Z,3.45
2019-03-18T03:35:14.797Z,3.90
2019-03-18T03:37:43.474Z,4.00
2019-03-18T03:40:12.860Z,3.90
2019-03-18T03:42:41.477Z,3.67
2019-03-18T03:45:12.450Z,3.58
2019-03-18T03:47:41.058Z,3.17
2019-03-18T03:50:12.309Z,3.27
2019-03-18T03:52:40.901Z,2.77
2019-03-18T03:55:11.099Z,2.72
2019-03-18T03:57:40.150Z,2.70
2019-03-18T04:00:13.125Z,2.60
2019-03-18T04:02:42.368Z,2.60
2019-03-18T04:05:11.273Z,2.10
2019-03-18T04:07:39.868Z,2.47
2019-03-18T04:10:15.532Z,2.42
2019-03-18T04:12:44.265Z,2.25
2019-03-18T04:15:14.191Z,2.10
2019-03-18T04:17:42.871Z,2.12
2019-03-18T04:20:16.452Z,2.02
2019-03-18T04:22:45.089Z,2.15
2019-03-18T04:25:13.634Z,1.95
2019-03-18T04:27:42.267Z,2.10
2019-03-18T04:30:13.749Z,2.12
2019-03-18T04:32:42.387Z,2.27
2019-03-18T04:35:11.100Z,2.30
2019-03-18T04:37:39.550Z,2.30
2019-03-18T04:40:10.231Z,2.05
2019-03-18T04:42:38.687Z,2.00
2019-03-18T04:45:08.987Z,1.90
2019-03-18T04:47:37.584Z,2.35
2019-03-18T04:50:10.864Z,2.17
2019-03-18T04:52:39.393Z,2.08
2019-03-18T04:55:08.699Z,2.10
2019-03-18T04:57:37.258Z,1.70
2019-03-18T05:00:11.668Z,2.00
2019-03-18T05:02:40.224Z,2.25
2019-03-18T05:05:10.688Z,2.10
2019-03-18T05:07:39.317Z,1.92
2019-03-18T05:10:09.766Z,2.15
2019-03-18T05:12:38.469Z,2.05
2019-03-18T05:15:11.418Z,1.70
2019-03-18T05:17:39.949Z,1.90
2019-03-18T05:20:12.305Z,1.70
2019-03-18T05:22:42.532Z,1.90
2019-03-18T05:25:11.523Z,2.83
2019-03-18T05:27:40.187Z,2.20
2019-03-18T05:30:13.629Z,1.98
2019-03-18T05:32:42.228Z,2.30
2019-03-18T05:35:10.925Z,2.50
2019-03-18T05:37:39.532Z,2.70
2019-03-18T05:40:09.369Z,3.00
2019-03-18T05:42:37.982Z,3.03
2019-03-18T05:45:09.464Z,4.12
2019-03-18T05:47:39.644Z,3.55
2019-03-18T05:50:10.233Z,3.02
2019-03-18T05:52:38.900Z,3.45
2019-03-18T05:55:09.013Z,2.87
2019-03-18T05:57:37.542Z,3.80
2019-03-18T06:00:09.252Z,3.30
2019-03-18T06:02:37.967Z,3.63
2019-03-18T06:05:07.360Z,3.42
2019-03-18T06:07:35.965Z,3.77
2019-03-18T06:10:07.434Z,3.10
2019-03-18T06:12:35.960Z,3.53
2019-03-18T06:15:06.926Z,3.80
2019-03-18T06:17:35.555Z,4.35
2019-03-18T06:20:06.354Z,4.03
2019-03-18T06:22:35.040Z,4.53
2019-03-18T06:25:04.376Z,3.67
2019-03-18T06:27:32.903Z,3.80
2019-03-18T06:30:01.486Z,3.60
2019-03-18T06:32:30.119Z,3.98
2019-03-18T06:34:58.644Z,3.87
2019-03-18T06:37:27.243Z,4.10
2019-03-18T06:39:55.800Z,3.43
2019-03-18T06:42:24.613Z,3.30
2019-03-18T06:44:53.143Z,4.08
2019-03-18T06:47:21.703Z,3.70
2019-03-18T06:49:50.223Z,3.50
2019-03-18T06:52:18.674Z,3.93
2019-03-18T06:54:47.150Z,3.75
2019-03-18T06:57:15.610Z,4.17
2019-03-18T06:59:45.070Z,4.28
2019-03-18T07:02:13.665Z,3.50
2019-03-18T07:04:42.282Z,4.65
2019-03-18T07:07:10.904Z,4.35
2019-03-18T07:09:39.452Z,3.93
2019-03-18T07:12:08.008Z,5.05
2019-03-18T07:14:36.547Z,4.50
2019-03-18T07:17:05.173Z,4.22
2019-03-18T07:19:33.645Z,5.03
2019-03-18T07:22:02.278Z,5.50
2019-03-18T07:24:30.936Z,5.00
2019-03-18T07:26:59.540Z,4.75
2019-03-18T07:29:28.077Z,6.37
2019-03-18T07:31:56.673Z,3.85
2019-03-18T07:34:25.273Z,4.30
2019-03-18T07:36:55.081Z,5.22
2019-03-18T07:39:27.174Z,3.75
2019-03-18T07:41:55.683Z,3.33
2019-03-18T07:44:24.304Z,4.20
2019-03-18T07:46:52.977Z,4.10
2019-03-18T07:49:21.565Z,3.67
2019-03-18T07:51:50.093Z,4.03
2019-03-18T07:54:18.691Z,4.33
2019-03-18T07:56:47.221Z,3.05
2019-03-18T07:59:15.828Z,3.65
2019-03-18T08:01:44.360Z,3.30
2019-03-18T08:04:12.888Z,3.80
2019-03-18T08:06:41.454Z,3.55
2019-03-18T08:09:10.050Z,3.40
2019-03-18T08:11:38.609Z,3.12
2019-03-18T08:14:07.333Z,2.65
2019-03-18T08:16:35.893Z,3.83
2019-03-18T08:19:04.439Z,3.70
2019-03-18T08:21:32.958Z,2.80
2019-03-18T08:24:01.506Z,2.52
2019-03-18T08:26:30.106Z,3.02
2019-03-18T08:29:00.807Z,6.65
2019-03-18T08:31:29.418Z,3.30
2019-03-18T08:33:58.074Z,12.53
2019-03-18T08:36:26.620Z,6.83
2019-03-18T08:38:55.153Z,4.83
2019-03-18T08:41:23.705Z,3.08
2019-03-18T08:43:52.281Z,3.37
2019-03-18T08:46:20.735Z,2.60
2019-03-18T08:48:55.775Z,3.20
2019-03-18T08:51:19.709Z,3.27
2019-03-18T08:53:48.391Z,7.12
2019-03-18T08:56:19.792Z,3.90
2019-03-18T08:58:48.424Z,4.00
2019-03-18T09:01:17.013Z,4.30
2019-03-18T09:03:45.501Z,3.67
2019-03-18T09:06:14.043Z,15.45
2019-03-18T09:08:42.532Z,4.70
2019-03-18T09:11:11.066Z,4.03
2019-03-18T09:13:39.541Z,4.75
2019-03-18T09:16:08.144Z,5.22
2019-03-18T09:18:37.080Z,4.60
2019-03-18T09:21:05.607Z,6.35
2019-03-18T09:23:34.245Z,4.67
2019-03-18T09:26:02.881Z,6.25
2019-03-18T09:28:31.410Z,4.62
2019-03-18T09:31:00.025Z,4.90
2019-03-18T09:33:28.592Z,5.30
2019-03-18T09:35:57.224Z,3.55
2019-03-18T09:38:27.907Z,4.00
2019-03-18T09:40:56.170Z,4.75
2019-03-18T09:43:24.804Z,3.75
2019-03-18T09:45:54.653Z,4.00
2019-03-18T09:48:23.352Z,3.90
2019-03-18T09:50:53.136Z,4.62
2019-03-18T09:53:21.707Z,5.33
2019-03-18T10:06:07.214Z,4.20
2019-03-18T10:08:35.748Z,3.58
2019-03-18T10:11:46.668Z,8.50
2019-03-18T10:14:15.307Z,6.58
2019-03-18T10:16:43.901Z,6.85
2019-03-18T10:19:12.370Z,6.80
2019-03-18T10:21:40.850Z,7.58
2019-03-18T10:24:09.397Z,9.75
2019-03-18T10:26:38.051Z,12.43
2019-03-18T10:29:06.619Z,7.97
2019-03-18T10:31:38.893Z,9.18
2019-03-18T10:34:07.548Z,7.78
2019-03-18T10:36:36.113Z,7.78
2019-03-18T10:39:07.010Z,7.80
2019-03-18T10:41:35.455Z,8.90
2019-03-18T10:44:04.106Z,9.93
2019-03-18T10:46:32.602Z,7.53
2019-03-18T10:49:01.212Z,7.87
2019-03-18T10:51:31.933Z,8.78
2019-03-18T10:54:01.373Z,6.90
2019-03-18T10:56:29.931Z,7.20
2019-03-18T10:59:00.591Z,6.53
2019-03-18T11:01:29.220Z,6.60
2019-03-18T11:03:57.855Z,7.15
2019-03-18T11:06:26.449Z,7.12
2019-03-18T11:08:55.065Z,9.30
2019-03-18T11:11:23.676Z,7.62
2019-03-18T11:13:52.275Z,7.42
2019-03-18T11:16:20.913Z,6.45
2019-03-18T11:18:49.431Z,6.65
2019-03-18T11:21:17.968Z,7.10
2019-03-18T11:23:48.589Z,6.70
2019-03-18T11:26:17.617Z,6.65
2019-03-18T11:28:46.149Z,6.62
2019-03-18T11:31:14.750Z,7.78
2019-03-18T11:33:43.282Z,7.42
2019-03-18T11:36:11.810Z,7.85
2019-03-18T11:38:43.271Z,7.78
2019-03-18T11:41:11.941Z,7.92
2019-03-18T11:43:40.485Z,6.62
2019-03-18T11:46:10.674Z,7.53
2019-03-18T11:48:39.275Z,7.62
2019-03-18T11:51:09.011Z,11.03
2019-03-18T11:53:37.624Z,10.13
2019-03-18T11:56:06.250Z,7.05
2019-03-18T11:58:34.842Z,11.43
2019-03-18T12:01:03.459Z,8.75
2019-03-18T12:03:32.064Z,7.45
2019-03-18T12:06:00.718Z,8.68
2019-03-18T12:08:31.544Z,9.25
2019-03-18T12:11:00.084Z,9.05
2019-03-18T12:13:28.713Z,12.25
2019-03-18T12:15:57.288Z,8.83
2019-03-18T12:18:25.887Z,8.63
2019-03-18T12:20:54.450Z,7.33
2019-03-18T12:23:23.048Z,8.13
2019-03-18T12:25:51.617Z,9.75
2019-03-18T12:28:20.239Z,7.47
2019-03-18T12:30:48.787Z,8.60
2019-03-18T12:33:17.320Z,8.83
2019-03-18T12:35:47.129Z,7.50
2019-03-18T12:38:15.660Z,7.80
2019-03-18T12:40:44.277Z,7.35
2019-03-18T12:43:12.878Z,7.75
2019-03-18T12:45:41.472Z,9.60
2019-03-18T12:48:10.076Z,9.05
2019-03-18T12:50:54.370Z,7.60
2019-03-18T12:53:09.147Z,7.83
2019-03-18T12:55:37.756Z,8.28
2019-03-18T12:58:06.518Z,6.50
2019-03-18T13:00:38.115Z,7.10
2019-03-18T13:03:06.727Z,7.70
2019-03-18T13:05:35.324Z,7.62
2019-03-18T13:08:03.985Z,6.92
2019-03-18T13:10:32.502Z,8.28
2019-03-18T13:13:01.114Z,6.33
2019-03-18T13:15:29.727Z,7.22
2019-03-18T13:17:58.406Z,5.58
2019-03-18T13:20:26.936Z,6.45
2019-03-18T13:22:55.393Z,6.30
2019-03-18T13:25:25.985Z,5.97
2019-03-18T13:27:57.278Z,6.53
2019-03-18T13:30:26.286Z,5.70
2019-03-18T13:32:54.918Z,5.78
2019-03-18T13:35:23.549Z,5.55
2019-03-18T13:37:52.103Z,5.35
2019-03-18T13:40:20.725Z,5.60
2019-03-18T13:42:49.370Z,6.20
2019-03-18T13:45:22.079Z,5.33
2019-03-18T13:47:50.701Z,6.35
2019-03-18T13:50:22.565Z,7.87
2019-03-18T13:52:51.124Z,8.75
2019-03-18T13:55:19.745Z,10.78
2019-03-18T13:57:48.318Z,17.77
2019-03-18T14:00:17.933Z,13.78
2019-03-18T14:02:46.565Z,16.25
2019-03-18T14:05:15.590Z,13.22
2019-03-18T14:07:44.316Z,11.33
2019-03-18T14:10:23.635Z,9.43
2019-03-18T14:12:53.606Z,6.70
2019-03-18T14:15:23.577Z,5.83
2019-03-18T14:17:52.169Z,6.47
2019-03-18T14:20:23.150Z,6.83
2019-03-18T14:22:51.747Z,6.47
2019-03-18T14:25:20.385Z,5.90
2019-03-18T14:27:48.912Z,6.60
2019-03-18T14:30:22.103Z,6.80
2019-03-18T14:32:50.730Z,5.60
2019-03-18T14:35:21.566Z,6.30
2019-03-18T14:37:49.740Z,6.90
2019-03-18T14:40:24.192Z,5.92
2019-03-18T14:42:52.782Z,6.25
2019-03-18T14:45:22.379Z,6.22
2019-03-18T14:47:51.007Z,5.22
2019-03-18T14:50:20.097Z,6.22
2019-03-18T14:52:49.282Z,5.95
2019-03-18T14:55:19.016Z,5.60
2019-03-18T14:57:48.944Z,6.30
2019-03-18T15:00:19.742Z,5.87
2019-03-18T15:02:48.347Z,6.72
2019-03-18T15:05:16.869Z,7.40
2019-03-18T15:07:45.810Z,6.87
2019-03-18T15:10:16.610Z,6.78
2019-03-18T15:12:45.177Z,6.62
2019-03-18T15:15:16.112Z,6.17
2019-03-18T15:17:44.714Z,7.10
2019-03-18T15:20:15.014Z,8.13
2019-03-18T15:22:43.982Z,6.80
2019-03-18T15:25:15.327Z,7.00
2019-03-18T15:27:43.934Z,5.97
2019-03-18T15:30:17.746Z,11.55
2019-03-18T15:32:46.354Z,15.60
2019-03-18T15:35:16.662Z,21.37
2019-03-18T15:37:45.199Z,20.23
2019-03-18T15:40:19.650Z,20.62
2019-03-18T15:42:48.318Z,20.88
2019-03-18T15:45:21.276Z,22.98
2019-03-18T15:47:49.890Z,24.02
2019-03-18T15:50:20.547Z,21.02
2019-03-18T15:52:51.270Z,25.32
2019-03-18T15:55:19.483Z,19.07
2019-03-18T15:57:48.090Z,11.33
2019-03-18T16:00:28.146Z,11.55
2019-03-18T16:02:56.709Z,8.65
2019-03-18T16:05:25.513Z,9.40
2019-03-18T16:07:54.129Z,11.30
2019-03-18T16:10:22.733Z,20.05
2019-03-18T16:12:51.344Z,20.97
2019-03-18T16:15:20.061Z,20.82
2019-03-18T16:17:48.670Z,22.80
2019-03-18T16:20:19.445Z,15.68
2019-03-18T16:22:47.949Z,12.03
2019-03-18T16:25:16.483Z,12.07
2019-03-18T16:27:45.058Z,12.18
2019-03-18T16:30:18.243Z,14.40
2019-03-18T16:32:46.855Z,18.25
2019-03-18T16:35:16.539Z,27.55
2019-03-18T16:37:45.475Z,23.45
2019-03-18T16:40:18.390Z,28.57
2019-03-18T16:42:46.996Z,26.15
2019-03-18T16:45:17.001Z,28.60
2019-03-18T16:47:45.974Z,24.60
2019-03-18T16:50:30.610Z,26.05
2019-03-18T16:52:59.250Z,19.60
2019-03-18T16:55:27.791Z,14.78
2019-03-18T16:57:56.444Z,16.15
2019-03-18T17:00:25.960Z,15.00
2019-03-18T17:02:54.648Z,14.98
2019-03-18T17:05:23.253Z,12.70
2019-03-18T17:07:54.194Z,11.57
2019-03-18T17:10:22.191Z,16.73
2019-03-18T17:12:50.657Z,15.18
2019-03-18T17:15:20.566Z,15.90
2019-03-18T17:17:49.170Z,15.98
2019-03-18T17:20:18.093Z,26.20
2019-03-18T17:22:53.302Z,20.82
2019-03-18T17:25:31.766Z,18.60
2019-03-18T17:28:00.378Z,16.23
2019-03-18T17:30:28.986Z,20.40
2019-03-18T17:32:57.510Z,21.48
2019-03-18T17:35:26.125Z,20.23
2019-03-18T17:37:54.663Z,19.52
2019-03-18T17:40:23.275Z,17.27
2019-03-18T17:42:51.918Z,18.07
2019-03-18T17:45:20.533Z,20.52
2019-03-18T17:47:49.066Z,20.10
2019-03-18T17:50:31.096Z,20.35
2019-03-18T17:53:03.477Z,23.35
2019-03-18T17:55:30.162Z,25.30
2019-03-18T17:57:58.641Z,26.68
2019-03-18T18:00:34.890Z,25.77
2019-03-18T18:03:03.580Z,24.30
2019-03-18T18:05:32.221Z,21.33
2019-03-18T18:08:00.758Z,18.52
2019-03-18T18:10:29.392Z,17.48
2019-03-18T18:12:57.969Z,18.40
2019-03-18T18:15:26.607Z,16.32
2019-03-18T18:17:55.146Z,20.02
2019-03-18T18:20:23.722Z,18.10
2019-03-18T18:22:52.399Z,18.70
2019-03-18T18:25:21.035Z,16.67
2019-03-18T18:27:49.502Z,17.52
2019-03-18T18:30:19.456Z,18.20
2019-03-18T18:32:48.060Z,18.57
2019-03-18T18:35:16.713Z,28.00
2019-03-18T18:37:45.272Z,20.97
2019-03-18T18:40:19.182Z,17.23
2019-03-18T18:42:47.728Z,19.55
2019-03-18T18:45:16.364Z,20.40
2019-03-18T18:47:46.505Z,18.35
2019-03-18T18:50:15.405Z,16.82
2019-03-18T18:52:44.016Z,15.83
2019-03-18T18:55:13.663Z,16.17
2019-03-18T18:57:42.253Z,15.28
2019-03-18T19:00:19.125Z,16.80
2019-03-18T19:02:47.746Z,15.03
2019-03-18T19:05:17.379Z,16.37
2019-03-18T19:07:46.025Z,15.78
2019-03-18T19:10:16.245Z,14.50
2019-03-18T19:12:44.788Z,14.70
2019-03-18T19:15:16.403Z,15.90
2019-03-18T19:17:45.031Z,17.02
2019-03-18T19:20:14.530Z,20.50
2019-03-18T19:22:44.505Z,17.42
2019-03-18T19:25:17.037Z,16.77
2019-03-18T19:27:45.647Z,18.17
2019-03-18T19:30:19.191Z,17.65
2019-03-18T19:32:47.832Z,18.90
2019-03-18T19:35:16.731Z,19.32
2019-03-18T19:37:45.344Z,20.48
2019-03-18T19:40:16.114Z,27.95
2019-03-18T19:42:44.723Z,30.27
2019-03-18T19:45:14.632Z,30.57
2019-03-18T19:47:43.549Z,28.77
2019-03-18T19:50:24.558Z,28.77
2019-03-18T19:52:53.164Z,25.92
2019-03-18T19:55:21.736Z,26.80
2019-03-18T19:57:50.436Z,24.82
2019-03-18T20:00:24.588Z,26.40
2019-03-18T20:02:53.126Z,25.60
2019-03-18T20:05:21.777Z,26.75
2019-03-18T20:07:50.512Z,24.37
2019-03-18T20:10:20.978Z,23.10
2019-03-18T20:12:49.895Z,20.82
2019-03-18T20:15:19.508Z,20.52
2019-03-18T20:17:48.185Z,20.30
2019-03-18T20:20:21.411Z,18.27
2019-03-18T20:22:50.083Z,18.00
2019-03-18T20:25:18.688Z,16.15
2019-03-18T20:27:47.325Z,17.35
2019-03-18T20:30:19.600Z,15.47
2019-03-18T20:32:48.228Z,14.68
2019-03-18T20:35:19.177Z,14.43
2019-03-18T20:37:51.667Z,14.05
2019-03-18T20:40:19.159Z,13.83
2019-03-18T20:42:47.790Z,12.37
2019-03-18T20:45:18.544Z,12.93
2019-03-18T20:47:47.149Z,11.65
2019-03-18T20:50:19.827Z,13.08
2019-03-18T20:52:50.074Z,10.85
2019-03-18T20:55:18.705Z,11.80
2019-03-18T20:57:47.342Z,13.18
2019-03-18T21:00:17.686Z,11.27
2019-03-18T21:02:46.292Z,10.97
2019-03-18T21:05:14.909Z,10.35
2019-03-18T21:07:43.447Z,10.17
2019-03-18T21:10:16.624Z,12.28
2019-03-18T21:12:45.251Z,12.90
2019-03-18T21:15:15.254Z,14.13
2019-03-18T21:17:43.971Z,16.23
2019-03-18T21:20:18.182Z,20.40
2019-03-18T21:22:46.812Z,28.05
2019-03-18T21:25:15.428Z,37.70
2019-03-18T21:27:44.060Z,33.00
2019-03-18T21:30:22.752Z,33.37
2019-03-18T21:32:51.692Z,28.62
2019-03-18T21:35:20.669Z,23.60
2019-03-18T21:37:49.191Z,26.70
2019-03-18T21:40:19.915Z,23.75
2019-03-18T21:42:48.552Z,26.57
2019-03-18T21:45:19.426Z,25.88
2019-03-18T21:47:48.338Z,25.62
2019-03-18T21:50:17.658Z,26.03
2019-03-18T21:52:46.571Z,25.40
2019-03-18T21:55:16.282Z,24.97
2019-03-18T21:57:44.920Z,28.90
2019-03-18T22:00:23.952Z,24.67
2019-03-18T22:02:52.565Z,24.27
2019-03-18T22:05:21.172Z,22.67
2019-03-18T22:07:49.829Z,21.45
2019-03-18T22:10:19.830Z,19.33
2019-03-18T22:12:48.534Z,21.70
2019-03-18T22:15:18.085Z,17.13
2019-03-18T22:17:46.690Z,18.40
2019-03-18T22:20:19.603Z,17.20
2019-03-18T22:22:48.205Z,18.33
2019-03-18T22:25:17.319Z,16.90
2019-03-18T22:27:45.939Z,18.35
2019-03-18T22:30:18.509Z,19.40
2019-03-18T22:32:47.394Z,19.50
2019-03-18T22:35:16.007Z,19.47
2019-03-18T22:37:44.615Z,25.50
2019-03-18T22:40:17.267Z,16.53
2019-03-18T22:42:45.928Z,22.10
2019-03-18T22:45:16.935Z,20.40
2019-03-18T22:47:45.851Z,16.60
2019-03-18T22:50:16.309Z,15.20
2019-03-18T22:52:45.026Z,14.50
2019-03-18T22:55:14.507Z,13.93
2019-03-18T22:57:43.109Z,19.40
2019-03-18T23:00:27.116Z,24.67
2019-03-18T23:02:55.719Z,28.50
2019-03-18T23:05:24.384Z,30.43
2019-03-18T23:07:52.956Z,29.10
2019-03-18T23:10:21.859Z,24.57
2019-03-18T23:12:50.574Z,22.87
2019-03-18T23:15:19.173Z,24.33
2019-03-18T23:17:47.864Z,21.13
2019-03-18T23:20:16.608Z,16.63
2019-03-18T23:22:45.228Z,11.67
2019-03-18T23:25:13.863Z,12.75
2019-03-18T23:27:42.575Z,11.57
2019-03-18T23:30:16.088Z,12.23
2019-03-18T23:32:44.705Z,12.17
2019-03-18T23:35:14.475Z,12.30
2019-03-18T23:37:43.063Z,13.13
2019-03-18T23:40:13.949Z,12.03
2019-03-18T23:42:42.650Z,11.93
2019-03-18T23:45:12.524Z,11.43
2019-03-18T23:47:41.152Z,11.43
2019-03-18T23:50:14.747Z,11.70
2019-03-18T23:52:43.470Z,12.03
2019-03-18T23:55:19.129Z,11.20
2019-03-18T23:57:43.004Z,9.73
